createdAt,value
2023-01-22T00:00:06.000Z,98.98
2023-01-22T00:05:06.000Z,99.09
2023-01-22T00:10:05.000Z,99.16
2023-01-22T00:15:05.000Z,99.41
2023-01-22T00:20:05.000Z,98.73
2023-01-22T00:24:51.000Z,97.93
2023-01-22T00:30:05.000Z,98.70
2023-01-22T00:35:05.000Z,98.84
2023-01-22T00:40:07.000Z,98.93
2023-01-22T00:45:04.000Z,97.73
2023-01-22T00:50:04.000Z,97.56
2023-01-22T00:55:04.000Z,97.36
2023-01-22T01:00:06.000Z,97.61
2023-01-22T01:05:05.000Z,98.04
2023-01-22T01:10:04.000Z,97.70
2023-01-22T01:15:05.000Z,97.87
2023-01-22T01:20:04.000Z,98.16
2023-01-22T01:25:04.000Z,98.81
2023-01-22T01:30:04.000Z,99.84
2023-01-22T01:35:04.000Z,100.07
2023-01-22T01:40:04.000Z,100.10
2023-01-22T01:45:04.000Z,98.78
2023-01-22T01:50:04.000Z,98.81
2023-01-22T01:55:04.000Z,98.39
2023-01-22T02:00:04.000Z,98.84
2023-01-22T02:05:04.000Z,98.21
2023-01-22T02:10:05.000Z,98.35
2023-01-22T02:15:05.000Z,98.90
2023-01-22T02:20:04.000Z,98.98
2023-01-22T02:25:05.000Z,99.18
2023-01-22T02:30:04.000Z,99.02
2023-01-22T02:35:04.000Z,98.58
2023-01-22T02:40:04.000Z,99.54
2023-01-22T02:45:04.000Z,98.54
2023-01-22T02:50:04.000Z,98.99
2023-01-22T02:55:04.000Z,98.87
2023-01-22T03:00:06.000Z,99.70
2023-01-22T03:05:04.000Z,100.02
2023-01-22T03:10:04.000Z,98.64
2023-01-22T03:15:04.000Z,98.68
2023-01-22T03:20:04.000Z,99.48
2023-01-22T03:25:04.000Z,100.07
2023-01-22T03:30:04.000Z,100.22
2023-01-22T03:35:04.000Z,99.19
2023-01-22T03:40:04.000Z,98.73
2023-01-22T03:45:04.000Z,98.73
2023-01-22T03:50:04.000Z,99.16
2023-01-22T03:55:04.000Z,100.03
2023-01-22T04:00:04.000Z,100.38
2023-01-22T04:05:04.000Z,100.58
2023-01-22T04:10:04.000Z,100.41
2023-01-22T04:15:04.000Z,99.47
2023-01-22T04:20:04.000Z,98.52
2023-01-22T04:25:04.000Z,99.04
2023-01-22T04:30:04.000Z,98.67
2023-01-22T04:35:04.000Z,99.24
2023-01-22T04:40:04.000Z,98.67
2023-01-22T04:45:04.000Z,99.16
2023-01-22T04:50:04.000Z,99.75
2023-01-22T04:55:04.000Z,99.47
2023-01-22T05:00:05.000Z,100.52
2023-01-22T05:05:04.000Z,100.61
2023-01-22T05:10:04.000Z,100.49
2023-01-22T05:15:04.000Z,100.55
2023-01-22T05:20:04.000Z,100.44
2023-01-22T05:25:04.000Z,99.35
2023-01-22T05:30:04.000Z,98.75
2023-01-22T05:35:04.000Z,98.61
2023-01-22T05:40:04.000Z,98.55
2023-01-22T05:45:04.000Z,98.95
2023-01-22T05:50:04.000Z,98.67
2023-01-22T05:55:04.000Z,98.13
2023-01-22T06:00:04.000Z,98.13
2023-01-22T06:05:04.000Z,98.21
2023-01-22T06:10:05.000Z,97.97
2023-01-22T06:15:04.000Z,97.78
2023-01-22T06:20:04.000Z,97.78
2023-01-22T06:25:04.000Z,97.84
2023-01-22T06:30:05.000Z,97.81
2023-01-22T06:35:04.000Z,97.78
2023-01-22T06:40:05.000Z,97.58
2023-01-22T06:45:04.000Z,97.47
2023-01-22T06:50:04.000Z,98.04
2023-01-22T06:55:05.000Z,99.27
2023-01-22T06:59:49.000Z,99.58
2023-01-22T07:05:05.000Z,99.61
2023-01-22T07:10:04.000Z,99.70
2023-01-22T07:15:05.000Z,99.70
2023-01-22T07:20:04.000Z,99.67
2023-01-22T07:25:05.000Z,99.61
2023-01-22T07:30:04.000Z,99.64
2023-01-22T07:35:05.000Z,99.50
2023-01-22T07:40:04.000Z,99.47
2023-01-22T07:45:04.000Z,99.58
2023-01-22T07:50:05.000Z,99.64
2023-01-22T07:55:04.000Z,99.69
2023-01-22T08:00:04.000Z,99.61
2023-01-22T08:05:04.000Z,99.64
2023-01-22T08:10:05.000Z,99.52
2023-01-22T08:15:05.000Z,99.55
2023-01-22T08:20:04.000Z,99.67
2023-01-22T08:25:04.000Z,99.67
2023-01-22T08:30:05.000Z,99.75
2023-01-22T08:35:05.000Z,99.78
2023-01-22T08:40:05.000Z,99.75
2023-01-22T08:45:04.000Z,99.77
2023-01-22T08:50:04.000Z,99.74
2023-01-22T08:55:04.000Z,99.80
2023-01-22T09:00:06.000Z,99.57
2023-01-22T09:05:05.000Z,99.28
2023-01-22T09:10:04.000Z,98.96
2023-01-22T09:15:04.000Z,98.93
2023-01-22T09:20:05.000Z,98.73
2023-01-22T09:25:05.000Z,98.50
2023-01-22T09:30:05.000Z,98.01
2023-01-22T09:35:05.000Z,97.95
2023-01-22T09:40:05.000Z,96.17
2023-01-22T09:45:04.000Z,96.40
2023-01-22T09:50:04.000Z,96.75
2023-01-22T09:55:04.000Z,96.32
2023-01-22T10:00:05.000Z,96.13
2023-01-22T10:05:05.000Z,97.58
2023-01-22T10:10:05.000Z,97.97
2023-01-22T10:15:05.000Z,98.08
2023-01-22T10:20:05.000Z,97.66
2023-01-22T10:25:05.000Z,97.57
2023-01-22T10:30:05.000Z,95.93
2023-01-22T10:35:05.000Z,94.95
2023-01-22T10:40:06.000Z,93.28
2023-01-22T10:45:05.000Z,93.35
2023-01-22T10:50:05.000Z,93.75
2023-01-22T10:55:05.000Z,93.69
2023-01-22T11:00:05.000Z,93.16
2023-01-22T11:05:05.000Z,93.29
2023-01-22T11:10:05.000Z,92.92
2023-01-22T11:15:05.000Z,92.92
2023-01-22T11:20:05.000Z,92.40
2023-01-22T11:25:05.000Z,92.05
2023-01-22T11:30:05.000Z,92.28
2023-01-22T11:34:50.000Z,91.50
2023-01-22T11:40:05.000Z,91.22
2023-01-22T11:45:05.000Z,91.55
2023-01-22T11:50:05.000Z,91.58
2023-01-22T11:55:05.000Z,92.10
2023-01-22T12:00:05.000Z,91.69
2023-01-22T12:05:05.000Z,91.39
2023-01-22T12:10:05.000Z,91.36
2023-01-22T12:15:05.000Z,92.17
2023-01-22T12:20:05.000Z,91.53
2023-01-22T12:25:05.000Z,91.63
2023-01-22T12:30:05.000Z,90.48
2023-01-22T12:35:05.000Z,91.21
2023-01-22T12:40:05.000Z,90.37
2023-01-22T12:45:05.000Z,91.22
2023-01-22T12:50:05.000Z,90.96
2023-01-22T12:55:05.000Z,90.94
2023-01-22T13:00:06.000Z,90.76
2023-01-22T13:05:05.000Z,91.43
2023-01-22T13:10:05.000Z,91.82
2023-01-22T13:15:05.000Z,90.31
2023-01-22T13:20:07.000Z,90.84
2023-01-22T13:25:05.000Z,90.48
2023-01-22T13:30:05.000Z,90.42
2023-01-22T13:35:05.000Z,90.89
2023-01-22T13:40:05.000Z,90.68
2023-01-22T13:45:05.000Z,92.60
2023-01-22T13:50:05.000Z,91.88
2023-01-22T13:55:05.000Z,90.44
2023-01-22T14:00:05.000Z,92.69
2023-01-22T14:05:05.000Z,92.66
2023-01-22T14:10:05.000Z,92.46
2023-01-22T14:15:05.000Z,92.86
2023-01-22T14:20:05.000Z,93.21
2023-01-22T14:25:05.000Z,93.66
2023-01-22T14:30:05.000Z,93.69
2023-01-22T14:35:05.000Z,93.89
2023-01-22T14:40:05.000Z,93.58
2023-01-22T14:45:05.000Z,94.10
2023-01-22T14:50:05.000Z,94.11
2023-01-22T14:55:05.000Z,94.01
2023-01-22T15:00:06.000Z,94.03
2023-01-22T15:05:05.000Z,94.44
2023-01-22T15:10:06.000Z,94.21
2023-01-22T15:15:05.000Z,94.18
2023-01-22T15:20:05.000Z,94.04
2023-01-22T15:25:05.000Z,93.55
2023-01-22T15:30:06.000Z,94.01
2023-01-22T15:35:05.000Z,94.18
2023-01-22T15:40:05.000Z,93.82
2023-01-22T15:45:05.000Z,93.93
2023-01-22T15:49:50.000Z,94.22
2023-01-22T15:55:05.000Z,93.62
2023-01-22T16:00:06.000Z,93.76
2023-01-22T16:05:05.000Z,93.90
2023-01-22T16:10:05.000Z,93.88
2023-01-22T16:15:05.000Z,94.04
2023-01-22T16:20:05.000Z,94.13
2023-01-22T16:25:05.000Z,94.37
2023-01-22T16:30:05.000Z,94.60
2023-01-22T16:35:05.000Z,94.49
2023-01-22T16:40:05.000Z,93.82
2023-01-22T16:45:05.000Z,93.94
2023-01-22T16:50:05.000Z,93.71
2023-01-22T16:55:05.000Z,93.37
2023-01-22T16:59:50.000Z,93.61
2023-01-22T17:05:05.000Z,93.92
2023-01-22T17:10:05.000Z,93.78
2023-01-22T17:15:05.000Z,93.86
2023-01-22T17:20:05.000Z,94.30
2023-01-22T17:25:05.000Z,94.55
2023-01-22T17:30:05.000Z,94.27
2023-01-22T17:35:05.000Z,94.32
2023-01-22T17:40:05.000Z,94.04
2023-01-22T17:45:05.000Z,94.18
2023-01-22T17:50:05.000Z,94.55
2023-01-22T17:55:05.000Z,95.23
2023-01-22T18:00:05.000Z,94.95
2023-01-22T18:05:05.000Z,95.21
2023-01-22T18:10:05.000Z,95.01
2023-01-22T18:15:05.000Z,94.78
2023-01-22T18:20:05.000Z,94.66
2023-01-22T18:25:05.000Z,94.30
2023-01-22T18:30:05.000Z,94.58
2023-01-22T18:35:05.000Z,94.72
2023-01-22T18:40:05.000Z,94.76
2023-01-22T18:45:05.000Z,94.95
2023-01-22T18:50:05.000Z,94.73
2023-01-22T18:55:05.000Z,94.62
2023-01-22T18:59:50.000Z,94.89
2023-01-22T19:05:05.000Z,95.24
2023-01-22T19:10:05.000Z,95.73
2023-01-22T19:15:05.000Z,95.99
2023-01-22T19:20:05.000Z,95.78
2023-01-22T19:25:05.000Z,95.55
2023-01-22T19:30:05.000Z,95.42
2023-01-22T19:35:06.000Z,95.65
2023-01-22T19:40:05.000Z,95.81
2023-01-22T19:45:05.000Z,96.04
2023-01-22T19:50:05.000Z,95.90
2023-01-22T19:55:05.000Z,95.59
2023-01-22T20:00:05.000Z,95.55
2023-01-22T20:05:05.000Z,95.53
2023-01-22T20:10:05.000Z,95.36
2023-01-22T20:15:05.000Z,95.10
2023-01-22T20:20:05.000Z,94.93
2023-01-22T20:25:05.000Z,95.13
2023-01-22T20:30:06.000Z,95.04
2023-01-22T20:35:05.000Z,95.10
2023-01-22T20:40:05.000Z,95.24
2023-01-22T20:45:05.000Z,94.93
2023-01-22T20:50:05.000Z,95.08
2023-01-22T20:55:05.000Z,95.25
2023-01-22T21:00:07.000Z,94.94
2023-01-22T21:05:05.000Z,94.68
2023-01-22T21:10:05.000Z,94.45
2023-01-22T21:15:05.000Z,94.42
2023-01-22T21:20:05.000Z,93.99
2023-01-22T21:25:05.000Z,94.20
2023-01-22T21:30:05.000Z,94.17
2023-01-22T21:35:05.000Z,93.94
2023-01-22T21:40:05.000Z,94.40
2023-01-22T21:45:05.000Z,94.28
2023-01-22T21:50:05.000Z,94.08
2023-01-22T21:55:05.000Z,94.28
2023-01-22T22:00:05.000Z,94.36
2023-01-22T22:05:05.000Z,94.28
2023-01-22T22:10:05.000Z,94.08
2023-01-22T22:15:05.000Z,93.68
2023-01-22T22:20:05.000Z,93.85
2023-01-22T22:25:06.000Z,93.74
2023-01-22T22:30:05.000Z,93.51
2023-01-22T22:35:05.000Z,93.56
2023-01-22T22:40:06.000Z,93.76
2023-01-22T22:45:05.000Z,93.51
2023-01-22T22:50:06.000Z,93.65
2023-01-22T22:55:06.000Z,93.56
2023-01-22T23:00:07.000Z,93.51
2023-01-22T23:05:06.000Z,93.40
2023-01-22T23:10:06.000Z,93.94
2023-01-22T23:15:06.000Z,94.22
2023-01-22T23:20:06.000Z,93.79
2023-01-22T23:25:06.000Z,93.91
2023-01-22T23:30:05.000Z,93.94
2023-01-22T23:35:05.000Z,93.56
2023-01-22T23:40:05.000Z,93.99
2023-01-22T23:45:05.000Z,94.25
2023-01-22T23:50:05.000Z,93.94
2023-01-22T23:55:05.000Z,93.94
